METAR Data
IDs: Format: Raw Decoded Include TAF

Data at: 0447 UTC 27 Jan 2021

K4R5 270435Z AUTO 33005KT 10SM OVC028 M10/M14 A3033 RMK AO2 T11001145
K4R5 270415Z AUTO 34005KT 10SM OVC028 M10/M14 A3032 RMK AO2 T10991145
K4R5 270355Z AUTO 35006KT 10SM OVC028 M10/M14 A3032 RMK AO2 T10971140
K4R5 270335Z AUTO 35005KT 10SM OVC028 M10/M14 A3031 RMK AO2 T10961139
K4R5 270315Z AUTO 35005KT 10SM OVC028 M10/M14 A3031 RMK AO2 T10971138
K4R5 270255Z AUTO 00000KT 10SM OVC028 M11/M13 A3030 RMK AO2 T11131132
K4R5 270235Z AUTO 00000KT 10SM OVC030 M14/M16 A3030 RMK AO2 T11441159
K4R5 270215Z AUTO 00000KT 10SM OVC034 M15/M17 A3029 RMK AO2 T11551170
K4R5 270155Z AUTO 00000KT 10SM BKN036 M16/M18 A3029 RMK AO2 T11651180
K4R5 270135Z AUTO 00000KT 10SM CLR M16/M17 A3029 RMK AO2 T11621175
K4R5 270115Z AUTO 00000KT 10SM CLR M15/M16 A3029 RMK AO2 T11551165
K4R5 270055Z AUTO 00000KT 10SM CLR M14/M16 A3029 RMK AO2 T11401161
K4R5 270035Z AUTO 00000KT 10SM CLR M11/M15 A3028 RMK AO2 T11101154
K4R5 270015Z AUTO 32004KT 10SM CLR M10/M15 A3028 RMK AO2 T11051153
K4R5 262355Z AUTO 32004KT 10SM CLR M11/M15 A3027 RMK AO2 T11141152
K4R5 262335Z AUTO 35004KT 10SM SCT120 M11/M16 A3026 RMK AO2 T11081157
K4R5 262315Z AUTO 35003KT 10SM SCT110 M11/M15 A3026 RMK AO2 T11061155
K4R5 262255Z AUTO 35005KT 10SM CLR M10/M16 A3025 RMK AO2 T11001159
K4R5 262235Z AUTO 35004KT 10SM CLR M10/M16 A3024 RMK AO2 T10981162
K4R5 262215Z AUTO 34003KT 10SM CLR M09/M16 A3024 RMK AO2 T10941165
K4R5 262155Z AUTO 31003KT 10SM CLR M09/M15 A3023 RMK AO2 T10911150
K4R5 262135Z AUTO 36004KT 10SM CLR M09/M15 A3023 RMK AO2 T10901146
K4R5 262115Z AUTO 01003KT 10SM CLR M09/M14 A3023 RMK AO2 T10901142
K4R5 262055Z AUTO 00000KT 10SM SCT027 M09/M14 A3022 RMK AO2 T10881142
K4R5 262035Z AUTO 36003KT 10SM SCT027 M08/M14 A3022 RMK AO2 T10841142
K4R5 262015Z AUTO 00000KT 10SM CLR M09/M14 A3022 RMK AO2 T10881144
K4R5 261955Z AUTO 00000KT 10SM CLR M09/M15 A3021 RMK AO2 T10861148
K4R5 261935Z AUTO 00000KT 10SM BKN024 M09/M15 A3021 RMK AO2 T10891148
K4R5 261915Z AUTO 00000KT 10SM OVC022 M09/M15 A3021 RMK AO2 T10921146
K4R5 261855Z AUTO 32005KT 10SM -SN OVC022 M09/M14 A3021 RMK AO2 T10951143
K4R5 261835Z AUTO 35005KT 10SM OVC022 M09/M14 A3021 RMK AO2 T10951140
K4R5 261815Z AUTO 33005KT 10SM -SN OVC022 M09/M14 A3021 RMK AO2 T10941140
K4R5 261755Z AUTO 33005KT 10SM -SN OVC020 M09/M13 A3021 RMK AO2 T10951135
K4R5 261735Z AUTO 01005KT 10SM -SN OVC020 M09/M13 A3021 RMK AO2 T10931132
K4R5 261715Z AUTO 36005KT 7SM -SN OVC022 M09/M14 A3021 RMK AO2 T10951136
K4R5 261655Z AUTO 34006KT 10SM OVC022 M09/M14 A3021 RMK AO2 T10951142
K4R5 261635Z AUTO 36007KT 10SM OVC022 M10/M14 A3021 RMK AO2 T10961142
K4R5 261615Z AUTO 03005KT 10SM OVC022 M09/M14 A3021 RMK AO2 T10951139
K4R5 261555Z AUTO 03005KT 10SM OVC020 M09/M14 A3020 RMK AO2 T10951138
K4R5 261535Z AUTO 04006KT 10SM OVC020 M10/M13 A3020 RMK AO2 T10961131
K4R5 261515Z AUTO 04006KT 10SM -SN OVC020 M09/M13 A3019 RMK AO2 T10951128
K4R5 261455Z AUTO 04006KT 10SM OVC020 M09/M13 A3019 RMK AO2 T10951130
K4R5 261435Z AUTO 04004KT 10SM -SN OVC020 M09/M13 A3019 RMK AO2 T10951130
K4R5 261415Z AUTO 05005KT 10SM OVC020 M09/M13 A3019 RMK AO2 T10951132
K4R5 261355Z AUTO 03007KT 10SM OVC020 M09/M13 A3018 RMK AO2 T10951131
K4R5 261335Z AUTO 02008KT 10SM OVC020 M09/M13 A3018 RMK AO2 T10951132
K4R5 261315Z AUTO 04006KT 10SM OVC020 M09/M13 A3017 RMK AO2 T10931129
K4R5 261255Z AUTO 02007KT 10SM OVC020 M09/M13 A3017 RMK AO2 T10911134
K4R5 261235Z AUTO 03006KT 10SM BKN020 OVC028 M09/M13 A3017 RMK AO2 T10901127
K4R5 261215Z AUTO 02007KT 10SM OVC020 M09/M12 A3016 RMK AO2 T10881125
K4R5 261155Z AUTO 02008G15KT 10SM -SN OVC018 M09/M12 A3016 RMK AO2 T10881121
K4R5 261135Z AUTO 03008KT 10SM -SN OVC016 M08/M11 A3015 RMK AO2 T10851115
K4R5 261115Z AUTO 02008KT 10SM -SN OVC016 M08/M11 A3015 RMK AO2 T10831115
K4R5 261055Z AUTO 02008G17KT 7SM -SN OVC016 M08/M11 A3014 RMK AO2 T10821112
K4R5 261035Z AUTO 02008KT 5SM -SN BKN017 OVC024 M08/M11 A3014 RMK AO2 T10801107
K4R5 261015Z AUTO 02008KT 10SM -SN OVC019 M08/M11 A3014 RMK AO2 T10771115
K4R5 260955Z AUTO 36006KT 10SM OVC021 M08/M11 A3014 RMK AO2 T10801113
K4R5 260935Z AUTO 01010KT 10SM OVC020 M08/M11 A3014 RMK AO2 T10781112
K4R5 260915Z AUTO 36008KT 10SM OVC020 M08/M11 A3014 RMK AO2 T10801112
K4R5 260855Z AUTO 36006KT 10SM OVC022 M08/M11 A3014 RMK AO2 T10771112
K4R5 260835Z AUTO 01007KT 10SM OVC022 M08/M11 A3014 RMK AO2 T10771114
K4R5 260815Z AUTO 01005KT 10SM OVC022 M08/M11 A3014 RMK AO2 T10771115
K4R5 260755Z AUTO 03005KT 10SM OVC024 M08/M12 A3014 RMK AO2 T10771120
K4R5 260735Z AUTO 02007KT 10SM OVC026 M08/M12 A3014 RMK AO2 T10781125
K4R5 260715Z AUTO 03007KT 10SM OVC026 M08/M13 A3014 RMK AO2 T10771126
K4R5 260655Z AUTO 05007KT 10SM OVC024 M07/M12 A3014 RMK AO2 T10751123
K4R5 260635Z AUTO 04009KT 010V070 10SM OVC022 M07/M12 A3014 RMK AO2 T10731116
K4R5 260615Z AUTO 00000KT 7SM -SN BKN022 OVC029 M07/M12 A3015 RMK AO2 T10721119
K4R5 260555Z AUTO 05003KT 10SM OVC028 M07/M13 A3015 RMK AO2 T10721129
K4R5 260535Z AUTO 06005KT 10SM OVC028 M07/M13 A3015 RMK AO2 T10741127
K4R5 260515Z AUTO 05004KT 10SM OVC028 M07/M13 A3016 RMK AO2 T10721126
K4R5 260455Z AUTO 07003KT 10SM OVC028 M07/M13 A3017 RMK AO2 T10731127
K4R5 260435Z AUTO 07003KT 10SM OVC028 M07/M13 A3017 RMK AO2 T10751130
K4R5 260255Z AUTO 05004KT 10SM OVC030 M08/M13 A3017 RMK AO2 T10771135
K4R5 260235Z AUTO 03006KT 10SM OVC028 M08/M13 A3017 RMK AO2 T10771135
K4R5 260215Z AUTO 05005KT 10SM OVC026 M08/M13 A3016 RMK AO2 T10771130
K4R5 260155Z AUTO 05004KT 10SM OVC026 M08/M13 A3016 RMK AO2 T10781128
K4R5 260135Z AUTO 05003KT 10SM BKN026 M08/M13 A3016 RMK AO2 T10831132
K4R5 260115Z AUTO 05004KT 10SM SCT026 M09/M13 A3017 RMK AO2 T10861134
K4R5 260055Z AUTO 04004KT 10SM SCT024 M09/M13 A3017 RMK AO2 T10891133
K4R5 260035Z AUTO 00000KT 10SM SCT024 M09/M14 A3017 RMK AO2 T10931137
K4R5 250015Z AUTO 29010G17KT 10SM SCT110 M08/M16 A3013 RMK AO2 T10801157
K4R5 252355Z AUTO 05004KT 10SM SCT022 M10/M14 A3017 RMK AO2 T10971140
K4R5 252335Z AUTO 05003KT 10SM CLR M10/M14 A3017 RMK AO2 T11031144
K4R5 252315Z AUTO 00000KT 10SM SCT025 M09/M14 A3018 RMK AO2 T10941140
K4R5 242255Z AUTO 27007KT 10SM SCT110 M07/M16 A3010 RMK AO2 T10721159
K4R5 242235Z AUTO 27006G15KT 10SM SCT110 M07/M16 A3010 RMK AO2 T10701163
K4R5 252215Z AUTO 01004KT 10SM SCT021 M09/M14 A3018 RMK AO2 T10881138
K4R5 252155Z AUTO 35004KT 10SM SCT021 M08/M13 A3018 RMK AO2 T10851131
K4R5 242135Z AUTO 26010KT 10SM SCT110 M06/M16 A3007 RMK AO2 T10581160
K4R5 242115Z AUTO 26009G16KT 10SM SCT120 M06/M17 A3007 RMK AO2 T10571167
K4R5 252055Z AUTO 34005KT 10SM CLR M08/M13 A3018 RMK AO2 T10851131
K4R5 252035Z AUTO 35005KT 10SM CLR M08/M14 A3017 RMK AO2 T10831137
K4R5 252015Z AUTO 04005KT 10SM CLR M08/M13 A3017 RMK AO2 T10811129
K4R5 251955Z AUTO 04005KT 10SM CLR M08/M13 A3018 RMK AO2 T10811131
K4R5 251935Z AUTO 05003KT 10SM CLR M09/M13 A3018 RMK AO2 T10871135
K4R5 251915Z AUTO 06003KT 10SM CLR M09/M14 A3019 RMK AO2 T10861138
K4R5 251855Z AUTO 03003KT 10SM CLR M09/M14 A3020 RMK AO2 T10891144
K4R5 251835Z AUTO 36003KT 10SM CLR M09/M14 A3021 RMK AO2 T10931144
K4R5 251815Z AUTO 35003KT 10SM CLR M10/M14 A3021 RMK AO2 T10961145
K4R5 251755Z AUTO 36005KT 10SM CLR M10/M15 A3022 RMK AO2 T11001147
K4R5 251735Z AUTO 34005KT 10SM CLR M10/M15 A3024 RMK AO2 T11011148
K4R5 251715Z AUTO 33006KT 10SM SCT017 SCT120 M10/M15 A3025 RMK AO2 T11051146
K4R5 251655Z AUTO 32005KT 10SM SCT016 BKN110 M10/M15 A3025 RMK AO2 T11051147